Buen Pasto, Argentina
Current Conditions -  °F | °C
As of 10:00 PM on Monday 24 Nov 2014 (Local Time) from SAVC Reporting Station
Clear Clear  
Wind Chill: 20°   Ceiling: Unl
Heat Index: 20°   Visibility: 6mi
Dew Point:   Wind: 15mph
Humidity: 30%   Direction: 270°W
Pressure: 29.74"   Gusts: NA
Location:  45.08°S, 69.47°W
Report Text: SAVC 250100Z 27013KT CAVOK 20/02 Q1007
Loading
Personal Weather Stations






























Interactive Weather Map New forecast layout! Learn more

10-Day Weather Forecast

Advertisements
Track Severe Weather on mobile